Time;durP1;ratioP1;P1;durP2;ratioP2;P2;SDS_P1;SDS_P2;PMS_P1;PMS_P2;Temp;Humidity;BMP_temperature;BMP_pressure;BME280_temperature;BME280_humidity;BME280_pressure;Samples;Min_cycle;Max_cycle;Signal;HPM_P1;HPM_P2
2022/05/10 00:01:55;;;;;;;10.88;3.20;;;;;;;14.88;46.76;95127.81;4126127;28;20054;-52
2022/05/10 00:03:57;;;;;;;5.35;3.13;;;;;;;14.92;47.17;95113.28;4134412;28;20045;-52
2022/05/10 00:06:00;;;;;;;7.20;3.53;;;;;;;14.94;47.19;95126.28;4142293;28;20066;-50
2022/05/10 00:08:04;;;;;;;9.40;3.80;;;;;;;14.97;46.92;95119.84;4140679;28;20057;-52
2022/05/10 00:10:09;;;;;;;6.45;3.40;;;;;;;14.97;47.13;95114.56;4140526;28;20058;-51
2022/05/10 00:12:11;;;;;;;6.93;3.35;;;;;;;14.98;46.87;95121.50;4142386;28;20388;-55
2022/05/10 00:14:13;;;;;;;5.88;3.38;;;;;;;15.02;46.89;95118.34;4142022;28;20552;-53
2022/05/10 00:16:16;;;;;;;9.10;3.05;;;;;;;15.02;47.03;95120.16;4142252;28;20049;-54
2022/05/10 00:18:21;;;;;;;6.40;3.50;;;;;;;15.02;46.95;95113.06;4124527;28;20571;-51
2022/05/10 00:20:24;;;;;;;6.78;3.15;;;;;;;15.01;46.76;95116.69;4141996;28;20418;-53
2022/05/10 00:22:27;;;;;;;9.15;3.70;;;;;;;15.02;46.91;95115.69;4130609;28;20505;-55
2022/05/10 00:24:28;;;;;;;9.88;3.45;;;;;;;14.98;47.30;95114.41;4133173;28;20435;-51
2022/05/10 00:26:30;;;;;;;5.57;2.95;;;;;;;14.93;47.27;95114.94;4145016;28;20665;-53
2022/05/10 00:28:32;;;;;;;6.93;3.25;;;;;;;14.92;47.21;95120.38;4145239;28;20506;-54
2022/05/10 00:30:34;;;;;;;5.65;3.38;;;;;;;14.64;48.11;95118.22;4140856;28;20054;-53
2022/05/10 00:32:37;;;;;;;9.65;3.40;;;;;;;14.04;48.88;95121.44;4145194;28;20065;-54
2022/05/10 00:34:39;;;;;;;6.45;2.92;;;;;;;13.54;50.11;95123.38;4159727;28;20209;-50
2022/05/10 00:36:41;;;;;;;6.75;3.13;;;;;;;13.25;51.29;95132.59;4143797;28;20213;-48
2022/05/10 00:38:43;;;;;;;8.32;3.30;;;;;;;12.88;52.21;95119.91;4143257;28;20053;-53
2022/05/10 00:40:44;;;;;;;4.75;3.30;;;;;;;12.81;52.49;95117.09;4145007;28;20203;-53
2022/05/10 00:43:06;;;;;;;7.50;3.67;;;;;;;13.07;51.96;95119.59;4154460;28;20071;-52
2022/05/10 00:45:15;;;;;;;6.63;3.53;;;;;;;13.34;51.33;95132.63;4148374;28;20080;-52
2022/05/10 00:47:43;;;;;;;6.00;3.15;;;;;;;13.58;50.61;95123.88;4144860;28;20124;-50
2022/05/10 00:50:20;;;;;;;6.15;3.42;;;;;;;13.80;49.98;95125.78;4128258;28;20054;-52
2022/05/10 00:52:28;;;;;;;9.15;3.60;;;;;;;13.91;50.00;95119.34;4128796;28;20566;-50
2022/05/10 00:54:43;;;;;;;9.68;3.72;;;;;;;14.02;49.51;95124.25;4126936;28;20057;-53
2022/05/10 00:57:03;;;;;;;;;;;;;;;14.08;49.63;95118.31;4128715;28;20098;-52
2022/05/10 00:59:16;;;;;;;6.45;4.07;;;;;;;14.09;49.28;95117.31;4131815;28;20007;-51
2022/05/10 01:01:23;;;;;;;9.13;3.92;;;;;;;14.10;49.72;95123.41;4144629;28;20050;-48
2022/05/10 01:03:35;;;;;;;8.50;4.25;;;;;;;14.10;49.13;95115.50;4142246;28;20267;-49
2022/05/10 01:06:04;;;;;;;7.22;4.03;;;;;;;14.04;49.37;95108.28;4144718;28;20195;-49
2022/05/10 01:08:14;;;;;;;5.72;3.50;;;;;;;14.02;49.54;95118.97;4141522;28;20399;-48
2022/05/10 01:10:45;;;;;;;8.65;4.13;;;;;;;14.03;49.73;95122.47;4143098;28;20120;-49
2022/05/10 01:13:14;;;;;;;6.63;3.80;;;;;;;14.02;49.67;95105.00;4143838;28;20108;-49
2022/05/10 01:15:19;;;;;;;8.52;3.47;;;;;;;14.04;49.59;95097.75;4143312;28;20042;-53
2022/05/10 01:17:21;;;;;;;6.40;3.75;;;;;;;14.03;49.27;95104.81;4144353;28;20057;-50
2022/05/10 01:19:23;;;;;;;9.57;3.67;;;;;;;14.03;49.64;95106.66;4142548;28;20046;-52
2022/05/10 01:21:52;;;;;;;9.88;3.72;;;;;;;13.96;50.09;95100.41;4139386;28;20054;-49
2022/05/10 01:24:16;;;;;;;8.52;3.60;;;;;;;13.79;50.20;95108.38;4141424;28;20045;-49
2022/05/10 01:26:36;;;;;;;7.32;3.72;;;;;;;13.41;51.21;95102.84;4144680;28;20058;-52
2022/05/10 01:28:41;;;;;;;5.97;3.30;;;;;;;13.25;51.49;95113.34;4144180;28;20057;-50
2022/05/10 01:30:44;;;;;;;10.90;3.63;;;;;;;13.24;51.21;95104.63;4140215;28;20058;-51
2022/05/10 01:35:28;;;;;;;5.53;2.95;;;;;;;13.44;50.83;95094.63;4137463;28;20112;-51
2022/05/10 01:37:33;;;;;;;5.15;3.13;;;;;;;13.55;50.68;95096.09;4142285;28;20675;-53
2022/05/10 01:40:00;;;;;;;6.20;3.38;;;;;;;13.58;50.94;95101.00;4142410;28;20065;-52
2022/05/10 01:42:08;;;;;;;10.10;3.53;;;;;;;13.46;51.26;95103.16;4144161;28;20088;-54
2022/05/10 01:44:30;;;;;;;4.72;3.08;;;;;;;13.40;51.15;95103.00;4144206;28;20054;-55
2022/05/10 01:46:32;;;;;;;9.60;3.15;;;;;;;13.36;51.04;95105.16;4144198;28;20108;-52
2022/05/10 01:48:36;;;;;;;6.82;3.22;;;;;;;13.29;50.65;95101.53;4134860;28;20080;-54
2022/05/10 01:50:52;;;;;;;4.90;2.88;;;;;;;13.11;51.06;95096.41;4142480;28;20058;-51
2022/05/10 01:53:07;;;;;;;5.93;2.53;;;;;;;12.78;51.78;95096.41;4143383;28;20054;-54
2022/05/10 01:55:32;;;;;;;8.48;3.35;;;;;;;12.40;53.51;95100.44;4144078;28;20046;-53
2022/05/10 01:57:35;;;;;;;;;;;;;;;12.18;54.29;95100.03;4144328;28;20049;-51
2022/05/10 01:59:38;;;;;;;5.45;3.30;;;;;;;12.26;54.10;95099.22;4144006;28;19999;-52
2022/05/10 02:01:42;;;;;;;6.60;3.03;;;;;;;12.45;53.81;95092.88;4142584;28;20568;-50
2022/05/10 02:03:56;;;;;;;;;;;;;;;12.64;53.01;95097.84;4143934;28;20498;-50
2022/05/10 02:05:59;;;;;;;10.80;3.17;;;;;;;12.81;52.70;95096.06;4143800;28;20451;-52
2022/05/10 02:08:07;;;;;;;7.55;3.30;;;;;;;12.96;52.06;95098.06;4142389;28;20495;-55
2022/05/10 02:10:19;;;;;;;5.03;3.22;;;;;;;13.07;51.88;95106.44;4142587;28;20165;-48
2022/05/10 02:12:29;;;;;;;10.57;3.53;;;;;;;13.21;51.64;95101.53;4144011;28;20057;-53
2022/05/10 02:14:31;;;;;;;4.53;3.17;;;;;;;13.29;51.05;95093.63;4143496;28;20465;-52
2022/05/10 02:16:41;;;;;;;5.78;3.30;;;;;;;13.35;51.13;95094.78;4143613;28;20493;-53
2022/05/10 02:19:00;;;;;;;7.30;3.08;;;;;;;13.35;51.35;95100.03;4141919;28;20077;-49
2022/05/10 02:21:10;;;;;;;8.05;3.22;;;;;;;13.33;51.41;95100.19;4141924;28;20160;-49
2022/05/10 02:23:18;;;;;;;7.05;2.55;;;;;;;13.31;51.25;95110.06;4142143;28;20061;-51
2022/05/10 02:25:32;;;;;;;7.10;3.47;;;;;;;13.18;51.70;95109.72;4143691;28;20128;-55
2022/05/10 02:27:39;;;;;;;6.05;3.20;;;;;;;12.67;52.58;95108.06;4142031;28;20058;-53
2022/05/10 02:29:48;;;;;;;8.43;3.30;;;;;;;12.46;53.27;95103.25;4158460;28;20438;-50
2022/05/10 02:34:29;;;;;;;9.18;3.28;;;;;;;12.25;53.89;95101.03;4139248;28;20066;-51
2022/05/10 02:36:31;;;;;;;10.35;3.70;;;;;;;12.21;53.86;95098.91;4127193;28;20054;-52
2022/05/10 02:38:35;;;;;;;6.60;3.08;;;;;;;12.19;54.23;95101.69;4125499;28;20105;-50
2022/05/10 02:40:41;;;;;;;7.05;3.33;;;;;;;12.25;54.02;95094.97;4144976;28;20049;-51
2022/05/10 02:42:48;;;;;;;11.68;3.78;;;;;;;12.29;53.97;95096.31;4141645;28;20057;-48
2022/05/10 02:44:54;;;;;;;9.68;3.47;;;;;;;12.43;53.57;95094.84;4143127;28;20095;-51
2022/05/10 02:46:57;;;;;;;6.22;3.83;;;;;;;12.58;52.98;95097.69;4143180;28;20046;-50
2022/05/10 02:48:58;;;;;;;7.07;3.27;;;;;;;12.67;53.05;95094.91;4142377;28;20440;-52
2022/05/10 02:51:01;;;;;;;6.88;2.90;;;;;;;12.75;52.95;95103.78;4143137;28;20088;-49
2022/05/10 02:53:03;;;;;;;3.90;2.60;;;;;;;12.79;52.77;95102.47;4141542;28;20573;-52
2022/05/10 02:55:10;;;;;;;5.57;3.13;;;;;;;12.85;52.38;95100.03;4142907;28;20093;-54
2022/05/10 02:57:12;;;;;;;4.93;3.22;;;;;;;12.86;52.68;95096.41;4141477;28;20057;-52
2022/05/10 02:59:25;;;;;;;6.93;2.92;;;;;;;12.93;52.42;95098.38;4141734;28;20105;-53
2022/05/10 03:01:33;;;;;;;6.22;3.30;;;;;;;12.96;52.62;95098.06;4143162;28;20092;-53
2022/05/10 03:03:35;;;;;;;8.65;3.55;;;;;;;12.88;53.18;95107.59;4142508;28;20514;-50
2022/05/10 03:05:37;;;;;;;7.70;3.38;;;;;;;12.90;52.79;95102.16;4143049;28;20049;-51
2022/05/10 03:07:39;;;;;;;7.15;3.13;;;;;;;12.84;52.88;95105.44;4142551;28;20053;-53
2022/05/10 03:09:41;;;;;;;7.97;3.47;;;;;;;12.75;53.17;95101.16;4141596;28;20066;-55
2022/05/10 03:11:43;;;;;;;10.18;3.13;;;;;;;12.42;53.67;95101.09;4142941;28;20112;-50
2022/05/10 03:13:47;;;;;;;5.85;3.40;;;;;;;11.93;54.97;95107.00;4126642;28;20137;-54
2022/05/10 03:15:54;;;;;;;9.90;3.42;;;;;;;11.83;55.16;95106.25;4126645;28;20069;-51
2022/05/10 03:17:56;;;;;;;11.70;3.63;;;;;;;11.69;55.87;95110.28;4124544;28;20104;-51
2022/05/10 03:19:58;;;;;;;8.50;3.25;;;;;;;11.47;56.52;95106.41;4126618;28;20120;-53
2022/05/10 03:22:00;;;;;;;10.10;3.70;;;;;;;11.50;56.45;95105.25;4135987;28;20534;-51
2022/05/10 03:24:02;;;;;;;7.57;4.25;;;;;;;11.61;56.34;95110.25;4141121;28;20057;-52
2022/05/10 03:26:04;;;;;;;8.00;3.50;;;;;;;11.76;55.85;95103.44;4142723;28;20046;-50
2022/05/10 03:28:06;;;;;;;13.77;3.90;;;;;;;11.76;55.71;95100.00;4142779;28;20072;-54
2022/05/10 03:30:09;;;;;;;8.65;3.50;;;;;;;11.86;55.61;95104.16;4142798;28;20494;-53
2022/05/10 03:32:11;;;;;;;9.57;3.72;;;;;;;12.03;54.86;95104.25;4138290;28;20514;-52
2022/05/10 03:36:33;;;;;;;10.75;4.05;;;;;;;12.29;54.68;95114.69;4142543;28;20465;-54
2022/05/10 03:38:36;;;;;;;7.20;3.97;;;;;;;12.33;54.08;95115.22;4139766;28;20181;-51
2022/05/10 03:40:38;;;;;;;10.43;4.22;;;;;;;12.35;54.36;95110.63;4142277;28;20046;-53
2022/05/10 03:42:50;;;;;;;8.48;4.30;;;;;;;12.24;54.37;95115.19;4142616;28;20066;-52
2022/05/10 03:44:52;;;;;;;12.38;4.50;;;;;;;12.26;54.43;95121.09;4142504;28;20049;-51
2022/05/10 03:46:54;;;;;;;12.32;4.60;;;;;;;12.31;54.29;95120.59;4142298;28;20124;-53
2022/05/10 03:48:56;;;;;;;14.68;5.13;;;;;;;12.41;54.50;95121.31;4130557;28;20055;-51
2022/05/10 03:50:58;;;;;;;16.83;5.30;;;;;;;12.56;53.78;95115.41;4126247;28;20054;-53
2022/05/10 03:53:00;;;;;;;8.57;4.40;;;;;;;12.64;53.61;95115.44;4124859;28;20085;-52
2022/05/10 03:55:03;;;;;;;11.80;4.40;;;;;;;12.76;53.52;95122.03;4126644;28;20054;-52
2022/05/10 03:57:11;;;;;;;12.43;4.65;;;;;;;12.88;52.73;95128.63;4129690;28;20117;-50
2022/05/10 03:59:12;;;;;;;7.38;4.47;;;;;;;13.01;52.59;95128.13;4129737;28;20128;-50
2022/05/10 04:01:14;;;;;;;8.38;4.38;;;;;;;13.09;52.60;95125.50;4129800;28;20478;-52
2022/05/10 04:03:16;;;;;;;7.72;4.43;;;;;;;13.20;52.58;95132.25;4129344;28;20062;-55
2022/05/10 04:05:18;;;;;;;10.05;4.88;;;;;;;13.31;52.38;95133.75;4129815;28;20120;-52
2022/05/10 04:07:20;;;;;;;13.82;5.20;;;;;;;13.36;52.71;95134.09;4129546;28;20104;-55
2022/05/10 04:09:22;;;;;;;9.75;4.80;;;;;;;13.41;52.51;95139.69;4128174;28;20058;-54
2022/05/10 04:11:24;;;;;;;11.93;5.30;;;;;;;13.45;52.61;95137.53;4129353;28;20578;-54
2022/05/10 04:13:25;;;;;;;8.10;4.40;;;;;;;13.48;52.62;95130.13;4143479;28;20172;-52
2022/05/10 04:15:28;;;;;;;9.25;4.68;;;;;;;13.51;51.89;95129.81;4145250;28;20129;-52
2022/05/10 04:17:30;;;;;;;11.30;4.68;;;;;;;13.58;51.89;95132.59;4145170;28;20462;-57
2022/05/10 04:19:32;;;;;;;8.80;4.82;;;;;;;13.68;52.01;95133.25;4145289;28;20132;-55
2022/05/10 04:21:34;;;;;;;12.48;4.20;;;;;;;13.73;52.16;95128.28;4145678;28;20045;-50
2022/05/10 04:23:36;;;;;;;10.38;4.25;;;;;;;13.83;52.17;95138.66;4144208;28;20054;-51
2022/05/10 04:25:43;;;;;;;7.38;4.25;;;;;;;13.93;51.90;95139.25;4145636;28;20045;-53
2022/05/10 04:27:45;;;;;;;12.15;5.07;;;;;;;14.02;51.06;95142.69;4145484;28;20483;-53
2022/05/10 04:29:47;;;;;;;8.98;4.85;;;;;;;14.06;50.99;95138.72;4145459;28;20046;-51
2022/05/10 04:31:49;;;;;;;13.00;4.65;;;;;;;14.03;51.18;95136.44;4145078;28;20490;-52
2022/05/10 04:33:51;;;;;;;9.23;4.50;;;;;;;14.03;50.75;95140.91;4140701;28;20577;-52
2022/05/10 04:35:52;;;;;;;6.97;4.38;;;;;;;14.10;50.17;95132.13;4141937;28;20050;-54
2022/05/10 04:37:54;;;;;;;6.10;4.35;;;;;;;14.21;50.40;95136.19;4144185;28;20058;-52
2022/05/10 04:42:17;;;;;;;8.98;4.65;;;;;;;14.39;49.75;95135.13;4145293;28;20049;-56
2022/05/10 04:44:19;;;;;;;11.73;5.28;;;;;;;14.45;49.45;95131.81;4145212;28;20057;-48
2022/05/10 04:46:21;;;;;;;9.32;4.75;;;;;;;14.50;49.67;95132.16;4144929;28;20054;-53
2022/05/10 04:48:23;;;;;;;11.25;5.00;;;;;;;14.48;49.52;95134.94;4144419;28;20068;-50
2022/05/10 04:50:25;;;;;;;10.98;5.40;;;;;;;14.52;49.81;95143.34;4143172;28;20057;-52
2022/05/10 04:52:27;;;;;;;15.35;4.82;;;;;;;14.63;49.53;95147.44;4145127;28;20121;-55
2022/05/10 04:54:29;;;;;;;10.07;5.18;;;;;;;14.62;49.46;95149.22;4143151;28;20127;-51
2022/05/10 04:56:31;;;;;;;9.38;5.15;;;;;;;14.64;49.65;95136.69;4144376;28;20062;-53
2022/05/10 04:58:33;;;;;;;9.07;4.75;;;;;;;14.68;49.44;95139.81;4144776;28;20065;-51
2022/05/10 05:00:35;;;;;;;12.98;4.93;;;;;;;14.76;49.14;95149.50;4144680;28;20053;-52
2022/05/10 05:02:38;;;;;;;9.88;4.80;;;;;;;14.80;49.36;95151.63;4143707;28;20069;-52
2022/05/10 05:04:39;;;;;;;11.27;4.75;;;;;;;14.76;49.32;95147.69;4140653;28;20065;-52
2022/05/10 05:06:41;;;;;;;12.07;4.70;;;;;;;14.69;49.10;95155.47;4144550;28;20396;-53
2022/05/10 05:08:43;;;;;;;11.23;4.50;;;;;;;14.53;49.13;95156.31;4143264;28;20050;-54
2022/05/10 05:10:45;;;;;;;8.02;4.22;;;;;;;14.55;49.33;95148.28;4143999;28;20432;-54
2022/05/10 05:12:46;;;;;;;8.93;5.18;;;;;;;14.65;49.22;95148.91;4144327;28;20114;-53
2022/05/10 05:14:48;;;;;;;7.88;5.22;;;;;;;14.80;48.95;95154.25;4144254;28;20058;-50
2022/05/10 05:16:53;;;;;;;10.50;4.57;;;;;;;14.90;48.74;95151.38;4144585;28;20041;-54
2022/05/10 05:18:55;;;;;;;10.30;4.55;;;;;;;14.93;49.07;95143.94;4144119;28;20416;-51
2022/05/10 05:20:57;;;;;;;12.05;4.63;;;;;;;14.99;48.66;95147.69;4144448;28;20054;-55
2022/05/10 05:22:59;;;;;;;7.72;4.55;;;;;;;15.05;48.16;95147.00;4143157;28;20425;-52
2022/05/10 05:25:01;;;;;;;7.38;4.43;;;;;;;15.13;48.39;95146.13;4144407;28;20112;-49
2022/05/10 05:27:03;;;;;;;9.63;4.55;;;;;;;15.23;48.46;95146.72;4144315;28;20177;-50
2022/05/10 05:29:05;;;;;;;9.05;4.60;;;;;;;15.32;48.03;95145.66;4143967;28;20491;-49
2022/05/10 05:31:08;;;;;;;13.10;4.85;;;;;;;15.41;47.49;95153.50;4142935;28;20116;-52
2022/05/10 05:33:10;;;;;;;9.27;4.97;;;;;;;15.39;47.58;95148.38;4143887;28;20054;-51
2022/05/10 05:35:13;;;;;;;7.30;4.45;;;;;;;15.49;47.18;95148.16;4136880;28;20050;-53
2022/05/10 05:37:33;;;;;;;11.63;4.85;;;;;;;15.58;46.87;95141.81;4129317;28;20085;-52
2022/05/10 05:39:35;;;;;;;10.43;4.72;;;;;;;15.65;46.59;95145.34;4126487;28;20657;-54
2022/05/10 05:41:38;;;;;;;10.65;4.95;;;;;;;15.48;46.88;95147.31;4139105;28;20072;-53
2022/05/10 05:43:39;;;;;;;9.15;3.78;;;;;;;15.37;47.02;95137.19;4143493;28;20053;-51
2022/05/10 05:45:41;;;;;;;9.00;4.10;;;;;;;15.38;47.40;95136.22;4143834;28;20105;-50
2022/05/10 05:47:43;;;;;;;12.23;4.88;;;;;;;15.50;46.86;95142.69;4141995;28;20084;-50
2022/05/10 05:49:45;;;;;;;8.30;3.97;;;;;;;15.42;46.11;95134.00;4127637;28;20529;-53
2022/05/10 05:51:46;;;;;;;13.77;3.90;;;;;;;15.38;46.12;95133.56;4127451;28;20046;-51
2022/05/10 05:53:48;;;;;;;6.72;3.80;;;;;;;15.22;46.60;95141.59;4126096;28;20050;-54
2022/05/10 05:55:50;;;;;;;11.73;4.50;;;;;;;15.14;47.11;95137.19;4127632;28;20105;-54
2022/05/10 05:57:51;;;;;;;9.82;4.15;;;;;;;14.97;46.53;95139.16;4132364;28;20057;-52
2022/05/10 05:59:58;;;;;;;8.32;3.47;;;;;;;14.93;46.83;95138.69;4143637;28;20053;-53
2022/05/10 06:01:59;;;;;;;9.02;3.78;;;;;;;15.08;47.12;95140.56;4144078;28;20060;-54
2022/05/10 06:04:01;;;;;;;7.20;3.72;;;;;;;15.32;46.48;95135.09;4143676;28;20049;-51
2022/05/10 06:06:03;;;;;;;5.88;3.58;;;;;;;15.56;45.67;95128.75;4143654;28;20057;-49
2022/05/10 06:08:08;;;;;;;8.38;3.50;;;;;;;15.79;45.69;95130.56;4142481;28;20061;-51
2022/05/10 06:10:11;;;;;;;7.45;3.67;;;;;;;15.98;45.16;95129.19;4144037;28;20558;-52
2022/05/10 06:12:16;;;;;;;9.35;4.32;;;;;;;15.84;44.72;95133.50;4143534;28;20045;-53
2022/05/10 06:14:18;;;;;;;5.95;3.78;;;;;;;15.66;45.20;95138.25;4143533;28;20134;-53
2022/05/10 06:16:19;;;;;;;6.72;3.70;;;;;;;15.67;45.28;95132.78;4143642;28;20050;-52
2022/05/10 06:18:21;;;;;;;9.07;3.47;;;;;;;15.45;45.30;95144.22;4142671;28;20072;-52
2022/05/10 06:20:24;;;;;;;9.32;3.70;;;;;;;15.24;46.05;95142.25;4143538;28;20057;-50
2022/05/10 06:22:25;;;;;;;6.25;3.78;;;;;;;15.14;46.03;95140.69;4130276;28;20418;-49
2022/05/10 06:24:27;;;;;;;5.38;3.15;;;;;;;15.27;46.10;95137.44;4125774;28;20046;-51
2022/05/10 06:26:29;;;;;;;6.40;2.85;;;;;;;15.60;45.15;95131.88;4127182;28;20376;-52
2022/05/10 06:28:31;;;;;;;11.98;3.63;;;;;;;15.86;45.26;95136.78;4127050;28;20062;-49
2022/05/10 06:30:33;;;;;;;8.65;2.83;;;;;;;16.09;44.19;95130.56;4126761;28;20401;-52
2022/05/10 06:32:35;;;;;;;9.85;3.35;;;;;;;15.83;43.86;95138.94;4140151;28;20084;-54
2022/05/10 06:34:41;;;;;;;6.25;2.80;;;;;;;15.76;43.98;95137.03;4143075;28;20479;-53
2022/05/10 06:36:43;;;;;;;8.50;3.33;;;;;;;16.00;44.45;95139.59;4138865;28;20046;-52
2022/05/10 06:38:45;;;;;;;6.05;3.00;;;;;;;16.27;43.98;95138.16;4141722;28;20111;-53
2022/05/10 06:40:47;;;;;;;6.63;2.95;;;;;;;16.53;44.08;95129.72;4142877;28;20053;-51
2022/05/10 06:42:49;;;;;;;9.73;3.35;;;;;;;16.76;43.58;95135.69;4143563;28;20058;-52
2022/05/10 06:44:51;;;;;;;5.07;2.85;;;;;;;16.96;43.81;95133.28;4143053;28;20130;-52
2022/05/10 06:46:52;;;;;;;8.43;3.28;;;;;;;17.14;43.20;95130.22;4141617;28;20054;-55
2022/05/10 06:48:54;;;;;;;7.35;3.20;;;;;;;17.17;42.87;95132.47;4131623;28;20050;-54
2022/05/10 06:50:56;;;;;;;8.07;3.22;;;;;;;17.29;42.48;95130.13;4127102;28;20495;-54
2022/05/10 06:52:59;;;;;;;9.18;3.22;;;;;;;17.41;41.68;95133.09;4125656;28;20679;-50
2022/05/10 06:55:01;;;;;;;11.33;3.47;;;;;;;17.42;41.44;95134.72;4126826;28;20137;-54
2022/05/10 06:57:03;;;;;;;8.13;3.08;;;;;;;17.47;42.20;95132.34;4126546;28;20827;-52
2022/05/10 06:59:05;;;;;;;6.63;2.92;;;;;;;17.53;41.02;95134.22;4141131;28;20185;-55
2022/05/10 07:01:11;;;;;;;9.20;2.97;;;;;;;17.48;41.33;95127.84;4142949;28;20049;-54
2022/05/10 07:03:16;;;;;;;11.25;3.60;;;;;;;17.56;41.67;95127.72;4142470;28;20081;-54
2022/05/10 07:05:19;;;;;;;7.68;2.88;;;;;;;17.70;41.32;95128.63;4142814;28;20102;-54
2022/05/10 07:07:21;;;;;;;4.10;2.97;;;;;;;17.87;40.72;95129.19;4142553;28;20491;-54
2022/05/10 07:09:22;;;;;;;8.63;3.10;;;;;;;18.02;40.63;95127.25;4140853;28;20703;-53
2022/05/10 07:11:24;;;;;;;7.65;3.40;;;;;;;18.05;40.12;95126.88;4142234;28;20479;-54
2022/05/10 07:13:28;;;;;;;7.43;3.65;;;;;;;18.01;40.36;95125.63;4142347;28;20046;-56
2022/05/10 07:15:30;;;;;;;;;;;;;;;18.06;41.04;95130.34;4142791;28;20049;-53
2022/05/10 07:17:32;;;;;;;13.82;4.15;;;;;;;18.13;40.90;95125.88;4141749;28;19936;-56
2022/05/10 07:19:33;;;;;;;11.75;4.93;;;;;;;18.04;40.27;95119.13;4142338;28;20116;-54
2022/05/10 07:21:35;;;;;;;15.38;6.13;;;;;;;18.06;39.99;95125.03;4141088;28;20050;-56
2022/05/10 07:23:37;;;;;;;10.98;3.83;;;;;;;17.94;40.13;95120.28;4124932;28;20108;-56
2022/05/10 07:25:40;;;;;;;7.47;3.63;;;;;;;17.85;40.17;95125.91;4126374;28;20117;-53
2022/05/10 07:27:41;;;;;;;8.88;3.80;;;;;;;17.78;39.88;95125.84;4126486;28;20054;-54
2022/05/10 07:29:43;;;;;;;6.90;3.72;;;;;;;17.78;40.12;95118.72;4126234;28;20353;-53
2022/05/10 07:31:45;;;;;;;9.38;3.75;;;;;;;18.07;39.88;95121.38;4132826;28;20577;-53
2022/05/10 07:33:47;;;;;;;6.55;3.33;;;;;;;18.36;39.89;95125.63;4142204;28;20110;-54
2022/05/10 07:38:10;;;;;;;6.13;3.15;;;;;;;18.85;39.02;95121.97;4139523;28;20399;-56
2022/05/10 07:40:12;;;;;;;9.40;3.28;;;;;;;19.03;38.23;95108.91;4142408;28;20081;-53
2022/05/10 07:42:14;;;;;;;9.52;3.45;;;;;;;19.09;37.51;95123.22;4142721;28;20554;-54
2022/05/10 07:44:15;;;;;;;9.27;3.83;;;;;;;18.98;37.59;95116.69;4142272;28;20068;-56
2022/05/10 07:46:17;;;;;;;7.53;4.47;;;;;;;18.78;37.91;95121.94;4142597;28;20049;-57
2022/05/10 07:48:19;;;;;;;13.65;4.20;;;;;;;18.79;38.17;95117.44;4135740;28;20046;-56
2022/05/10 07:50:21;;;;;;;10.65;4.32;;;;;;;18.81;38.34;95118.88;4126645;28;20122;-57
2022/05/10 07:52:23;;;;;;;13.20;4.95;;;;;;;18.48;37.81;95120.59;4126319;28;20057;-58
2022/05/10 07:54:25;;;;;;;12.55;4.15;;;;;;;18.48;37.59;95113.44;4124707;28;20058;-50
2022/05/10 07:56:26;;;;;;;12.93;3.90;;;;;;;18.51;36.92;95120.97;4126133;28;20134;-54
2022/05/10 07:58:29;;;;;;;6.82;3.95;;;;;;;18.43;37.41;95118.50;4140970;28;20778;-57
2022/05/10 08:00:35;;;;;;;10.02;3.53;;;;;;;18.53;37.51;95113.66;4142595;28;20073;-54
2022/05/10 08:02:36;;;;;;;8.55;3.35;;;;;;;18.77;37.32;95109.63;4142629;28;20124;-55
2022/05/10 08:04:38;;;;;;;5.75;3.45;;;;;;;18.63;36.43;95119.41;4142129;28;20046;-54
2022/05/10 08:06:41;;;;;;;8.82;3.45;;;;;;;18.66;36.03;95112.06;4142457;28;20160;-53
2022/05/10 08:08:43;;;;;;;8.88;2.88;;;;;;;18.93;36.28;95107.66;4140766;28;20533;-52
2022/05/10 08:10:45;;;;;;;7.20;2.50;;;;;;;19.22;36.21;95104.66;4142323;28;20050;-52
2022/05/10 08:12:47;;;;;;;16.05;3.28;;;;;;;19.53;35.44;95107.75;4142494;28;20105;-54
2022/05/10 08:14:49;;;;;;;8.07;3.03;;;;;;;19.82;34.18;95106.53;4142332;28;20046;-56
2022/05/10 08:16:50;;;;;;;8.27;2.45;;;;;;;19.97;33.23;95104.47;4142113;28;20132;-57
2022/05/10 08:18:52;;;;;;;8.18;2.65;;;;;;;19.98;33.76;95099.97;4141974;28;20061;-54
2022/05/10 08:20:57;;;;;;;9.27;2.28;;;;;;;20.11;32.68;95104.44;4142218;28;20131;-53
2022/05/10 08:22:59;;;;;;;7.55;2.47;;;;;;;19.81;31.80;95096.91;4140744;28;20108;-55
2022/05/10 08:25:01;;;;;;;12.70;3.15;;;;;;;19.77;32.04;95098.38;4142339;28;20053;-54
2022/05/10 08:27:04;;;;;;;8.38;2.65;;;;;;;19.63;31.63;95094.88;4142228;28;20133;-55
2022/05/10 08:29:05;;;;;;;9.20;2.20;;;;;;;19.50;32.17;95093.03;4142379;28;20488;-54
2022/05/10 08:31:08;;;;;;;14.52;2.38;;;;;;;19.46;31.40;95097.13;4142039;28;20165;-54
2022/05/10 08:33:10;;;;;;;8.45;1.98;;;;;;;19.40;30.90;95096.09;4141850;28;20077;-56
2022/05/10 08:35:15;;;;;;;5.38;1.92;;;;;;;19.63;30.78;95098.34;4142221;28;20100;-54
2022/05/10 08:37:17;;;;;;;3.70;1.90;;;;;;;19.59;31.43;95090.97;4140636;28;20439;-55
2022/05/10 08:39:18;;;;;;;4.97;1.90;;;;;;;19.79;31.93;95088.34;4134950;28;20073;-56
2022/05/10 08:41:25;;;;;;;7.78;2.17;;;;;;;20.05;32.45;95095.47;4142970;28;20057;-54
2022/05/10 08:43:32;;;;;;;3.95;2.22;;;;;;;20.22;31.51;95090.50;4143484;28;20161;-52
2022/05/10 08:45:40;;;;;;;5.05;2.00;;;;;;;20.46;31.04;95097.78;4144996;28;20061;-50
2022/05/10 08:47:42;;;;;;;5.25;1.85;;;;;;;20.62;32.16;95085.84;4143404;28;20062;-53
2022/05/10 08:49:51;;;;;;;3.25;2.00;;;;;;;20.83;31.52;95090.06;4127011;28;20116;-54
2022/05/10 08:51:53;;;;;;;4.90;1.67;;;;;;;21.05;31.24;95084.41;4128456;28;20058;-54
2022/05/10 08:53:55;;;;;;;2.78;1.77;;;;;;;21.12;31.34;95087.84;4127140;28;20050;-53
2022/05/10 08:56:06;;;;;;;4.22;1.77;;;;;;;21.23;30.77;95087.16;4128633;28;20050;-54
2022/05/10 08:58:10;;;;;;;4.82;1.95;;;;;;;21.26;30.70;95086.72;4133649;28;20050;-52
2022/05/10 09:00:49;;;;;;;4.88;1.90;;;;;;;20.80;30.33;95085.19;4128731;28;20483;-51
2022/05/10 09:02:56;;;;;;;6.03;2.50;;;;;;;20.81;31.37;95078.81;4126619;28;20121;-58
2022/05/10 09:05:16;;;;;;;3.13;1.67;;;;;;;21.02;30.55;95068.88;4128542;28;20046;-56
2022/05/10 09:07:17;;;;;;;3.00;1.80;;;;;;;21.24;30.56;95077.31;4128399;28;20073;-57
2022/05/10 09:09:33;;;;;;;3.60;1.70;;;;;;;21.47;30.03;95071.44;4127480;28;20077;-53
2022/05/10 09:12:08;;;;;;;4.90;2.35;;;;;;;21.66;30.68;95070.44;4127351;28;20062;-54
2022/05/10 09:14:11;;;;;;;9.23;2.20;;;;;;;21.85;30.72;95068.63;4133708;28;20149;-56
2022/05/10 09:16:14;;;;;;;6.03;2.17;;;;;;;21.99;30.26;95065.84;4127001;28;20081;-56
2022/05/10 09:18:16;;;;;;;3.17;1.70;;;;;;;22.16;29.72;95064.22;4144315;28;20061;-52
2022/05/10 09:20:18;;;;;;;8.02;2.03;;;;;;;22.35;29.77;95067.72;4144447;28;20564;-56
2022/05/10 09:22:56;;;;;;;6.15;2.47;;;;;;;22.06;29.48;95070.03;4144636;28;20080;-53
2022/05/10 09:24:57;;;;;;;4.28;2.05;;;;;;;21.70;29.85;95064.66;4159179;28;20510;-52
2022/05/10 09:27:08;;;;;;;3.10;2.20;;;;;;;21.77;29.96;95060.91;4144505;28;20042;-53
2022/05/10 09:29:15;;;;;;;7.00;2.10;;;;;;;21.98;30.35;95062.31;4144266;28;20110;-55
2022/05/10 09:36:30;;;;;;;4.72;2.15;;;;;;;22.25;29.45;95056.75;4142971;28;20112;-54
2022/05/10 09:38:33;;;;;;;4.45;2.10;;;;;;;22.41;30.17;95055.31;4141824;28;20052;-52
2022/05/10 09:40:41;;;;;;;3.95;2.15;;;;;;;22.56;29.24;95045.06;4157679;28;20065;-51
2022/05/10 09:42:44;;;;;;;4.65;1.67;;;;;;;22.51;29.69;95044.94;4144500;28;20058;-54
2022/05/10 09:45:01;;;;;;;3.30;1.90;;;;;;;22.70;29.42;95043.03;4142808;28;20526;-49
2022/05/10 09:47:16;;;;;;;3.60;1.73;;;;;;;22.88;29.24;95044.84;4144320;28;20116;-48
2022/05/10 09:49:34;;;;;;;5.32;2.22;;;;;;;22.36;28.79;95037.31;4143490;28;20605;-50
2022/05/10 09:51:39;;;;;;;4.05;1.90;;;;;;;22.36;29.92;95037.31;4144424;28;20157;-50
2022/05/10 09:53:41;;;;;;;6.30;2.03;;;;;;;22.33;29.72;95039.59;4141723;28;20267;-52
2022/05/10 09:55:58;;;;;;;2.83;1.70;;;;;;;22.44;29.37;95042.34;4142507;28;20367;-51
2022/05/10 09:58:19;;;;;;;7.55;1.92;;;;;;;22.44;29.27;95042.34;4143884;28;20163;-55
2022/05/10 10:00:43;;;;;;;6.68;2.30;;;;;;;22.38;29.88;95039.75;4142472;28;20380;-51
2022/05/10 10:02:45;;;;;;;;;;;;;;;22.28;29.45;95034.94;4144621;28;20103;-53
2022/05/10 10:04:48;;;;;;;6.95;1.95;;;;;;;22.23;29.51;95034.81;4141903;28;20346;-52
2022/05/10 10:07:07;;;;;;;5.28;2.00;;;;;;;22.12;29.59;95031.00;4143947;28;20053;-55